Skip Navigation Links Skip Navigation Links

Current Weather

Phillips AAF, Aberdeen Proving Ground, Md.

For information only: do not use for flight planning or navigation.
Latest weather
Observation time Wednesday, December 2, 2020 8:58 PM EST
Local time Wednesday, December 2, 2020 10:12 PM EST
Flight conditions Visual Meteorological Conditions
Winds
Wind direction West-Southwest (250°)
Wind speed 7 mph
Visibility 10 mi.
Sky condition
Ceiling unlimited
Sky clear
Temperature 35°F
Dewpoint 22°F
Altimeter 30.21 in.Hg
Derived measurements
Relative humidity 58%
Wind chill 30°F
Density altitude -1802 ft.
Sea-level pressure 30.22 in.Hg
Remarks
Fully automated report.
System requires maintenance.
Automated weather observing station with precipitation discriminator.
METAR KAPG 030158Z AUTO 25006KT 10SM CLR 02/M05 A3021 RMK AO2 SLP234 T00191054 $

Settings

Location code

InnerDrive.Weather 4.0.6770.0 Release CLR 4.0.30319.42000
Copyright ©2018 Inner Drive Technology. All rights reserved. Portions Copyright ©1986-2018 David Braverman.

Find weather

Site navigation


Skip Navigation Links

Place info

Page info

PayPal - The safer, easier way to pay online!

Return home.

Copyright ©2020 Inner Drive Technology. Purveyors of fine, hand-crafted computer software. Page printed 2020-12-03T03:12:44 UTC.